Time;durP1;ratioP1;P1;durP2;ratioP2;P2;SDS_P1;SDS_P2;PMS_P1;PMS_P2;Temp;Humidity;BMP_temperature;BMP_pressure;BME280_temperature;BME280_humidity;BME280_pressure;Samples;Min_cycle;Max_cycle;Signal;HPM_P1;HPM_P2
2021/05/20 00:00:17;;;;;;;12.77;5.90;;;;;;;;;;5095520;28;20467;-58
2021/05/20 00:02:47;;;;;;;8.90;5.63;;;;;;;;;;5112996;28;20459;-61
2021/05/20 00:05:16;;;;;;;8.27;5.53;;;;;;;;;;5103695;28;20687;-54
2021/05/20 00:07:42;;;;;;;7.27;5.40;;;;;;;;;;5083261;28;20457;-58
2021/05/20 00:10:10;;;;;;;8.83;5.93;;;;;;;;;;5116219;28;20455;-60
2021/05/20 00:12:37;;;;;;;8.47;5.33;;;;;;;;;;5115780;28;20455;-59
2021/05/20 00:15:06;;;;;;;11.30;5.53;;;;;;;;;;5115509;28;20451;-55
2021/05/20 00:17:33;;;;;;;11.63;6.23;;;;;;;;;;5116227;28;20439;-62
2021/05/20 00:20:01;;;;;;;12.00;6.40;;;;;;;;;;5115905;28;20462;-55
2021/05/20 00:22:29;;;;;;;9.00;6.50;;;;;;;;;;5101235;28;20480;-58
2021/05/20 00:24:57;;;;;;;10.10;5.47;;;;;;;;;;5096089;28;20445;-61
2021/05/20 00:27:24;;;;;;;6.80;5.37;;;;;;;;;;5095001;28;20495;-57
2021/05/20 00:29:51;;;;;;;9.93;6.10;;;;;;;;;;5095471;28;20436;-60
2021/05/20 00:32:20;;;;;;;10.50;6.17;;;;;;;;;;5095517;28;20440;-56
2021/05/20 00:34:47;;;;;;;6.63;5.20;;;;;;;;;;5095807;28;20447;-51
2021/05/20 00:37:16;;;;;;;6.97;5.90;;;;;;;;;;5095885;28;20444;-58
2021/05/20 00:39:43;;;;;;;7.80;5.90;;;;;;;;;;5095787;28;20477;-53
2021/05/20 00:42:10;;;;;;;8.47;6.90;;;;;;;;;;5081918;28;20476;-51
2021/05/20 00:44:50;;;;;;;8.17;6.53;;;;;;;;;;5075448;28;20451;-57
2021/05/20 00:47:18;;;;;;;8.90;6.90;;;;;;;;;;5104992;28;20470;-60
2021/05/20 00:49:46;;;;;;;8.60;6.97;;;;;;;;;;5108742;28;20482;-56
2021/05/20 00:52:13;;;;;;;8.80;7.50;;;;;;;;;;5095400;28;20436;-51
2021/05/20 00:54:40;;;;;;;8.80;7.33;;;;;;;;;;5095218;28;20440;-61
2021/05/20 00:57:16;;;;;;;8.93;7.97;;;;;;;;;;5091042;28;20467;-61
2021/05/20 00:59:43;;;;;;;10.63;8.10;;;;;;;;;;5089483;28;20460;-58
2021/05/20 01:02:10;;;;;;;7.33;6.20;;;;;;;;;;5095269;28;20480;-60
2021/05/20 01:04:49;;;;;;;10.30;7.80;;;;;;;;;;5074832;28;20449;-52
2021/05/20 01:07:16;;;;;;;7.90;7.10;;;;;;;;;;5074780;28;20464;-58
2021/05/20 01:09:43;;;;;;;10.30;8.40;;;;;;;;;;5075112;28;20445;-59
2021/05/20 01:12:23;;;;;;;10.30;7.97;;;;;;;;;;5075041;28;20469;-58
2021/05/20 01:14:50;;;;;;;10.77;7.90;;;;;;;;;;5074729;28;20453;-56
2021/05/20 01:17:16;;;;;;;7.87;7.07;;;;;;;;;;5090377;28;20440;-57
2021/05/20 01:19:44;;;;;;;10.30;7.70;;;;;;;;;;5102018;28;20471;-59
2021/05/20 01:22:12;;;;;;;10.80;8.97;;;;;;;;;;5095028;28;20483;-58
2021/05/20 01:24:40;;;;;;;11.47;8.60;;;;;;;;;;5095229;28;20440;-61
2021/05/20 01:27:07;;;;;;;12.60;8.90;;;;;;;;;;5095361;28;20478;-57
2021/05/20 01:29:34;;;;;;;11.40;8.60;;;;;;;;;;5095617;28;20436;-56
2021/05/20 01:32:02;;;;;;;11.63;9.40;;;;;;;;;;5095862;28;20452;-58
2021/05/20 01:34:32;;;;;;;12.13;9.10;;;;;;;;;;5099022;28;20478;-56
2021/05/20 01:36:58;;;;;;;11.17;9.10;;;;;;;;;;5098223;28;20522;-57
2021/05/20 01:39:26;;;;;;;12.60;9.83;;;;;;;;;;5098742;28;20470;-58
2021/05/20 01:41:53;;;;;;;12.67;11.30;;;;;;;;;;5098406;28;20436;-54
2021/05/20 01:44:25;;;;;;;11.90;9.67;;;;;;;;;;5098868;28;20458;-57
2021/05/20 01:46:52;;;;;;;12.93;11.20;;;;;;;;;;5098282;28;20448;-58
2021/05/20 01:49:19;;;;;;;12.73;10.67;;;;;;;;;;5082339;28;20461;-58
2021/05/20 01:51:46;;;;;;;13.77;10.93;;;;;;;;;;5079037;28;20465;-59
2021/05/20 01:54:13;;;;;;;13.00;10.10;;;;;;;;;;5078536;28;20456;-56
2021/05/20 01:56:41;;;;;;;16.40;11.70;;;;;;;;;;5105364;28;20451;-57
2021/05/20 01:59:08;;;;;;;14.27;10.40;;;;;;;;;;5082422;28;20457;-60
2021/05/20 02:01:35;;;;;;;13.13;10.97;;;;;;;;;;5077673;28;20872;-53
2021/05/20 02:04:02;;;;;;;14.03;10.20;;;;;;;;;;5077760;28;20503;-57
2021/05/20 02:06:29;;;;;;;12.47;10.03;;;;;;;;;;5090745;28;20452;-55
2021/05/20 02:08:55;;;;;;;15.80;10.00;;;;;;;;;;5098272;28;20452;-55
2021/05/20 02:11:22;;;;;;;13.60;10.57;;;;;;;;;;5098046;28;20462;-54
2021/05/20 02:13:50;;;;;;;17.80;10.97;;;;;;;;;;5113200;28;20451;-54
2021/05/20 02:16:17;;;;;;;11.70;10.23;;;;;;;;;;5118112;28;20467;-58
2021/05/20 02:18:44;;;;;;;13.80;11.10;;;;;;;;;;5108144;28;20444;-55
2021/05/20 02:21:20;;;;;;;11.40;9.80;;;;;;;;;;5102181;28;20446;-58
2021/05/20 02:23:47;;;;;;;14.33;11.53;;;;;;;;;;5097405;28;20491;-49
2021/05/20 02:26:14;;;;;;;16.27;9.87;;;;;;;;;;5097671;28;20432;-56
2021/05/20 02:29:00;;;;;;;12.60;10.93;;;;;;;;;;5096940;28;20480;-51
2021/05/20 02:31:27;;;;;;;13.87;11.00;;;;;;;;;;5097463;28;20451;-57
2021/05/20 02:33:53;;;;;;;14.97;10.83;;;;;;;;;;5097554;28;20476;-57
2021/05/20 02:36:35;;;;;;;13.87;10.80;;;;;;;;;;5097408;28;20449;-58
2021/05/20 02:39:03;;;;;;;14.80;10.90;;;;;;;;;;5075781;28;20472;-57
2021/05/20 02:41:29;;;;;;;15.90;11.10;;;;;;;;;;5092974;28;20445;-51
2021/05/20 02:43:56;;;;;;;14.50;10.70;;;;;;;;;;5097983;28;20499;-60
2021/05/20 02:46:24;;;;;;;12.63;10.60;;;;;;;;;;5116903;28;20469;-52
2021/05/20 02:48:51;;;;;;;13.10;10.93;;;;;;;;;;5117275;28;20485;-59
2021/05/20 02:51:18;;;;;;;13.77;10.40;;;;;;;;;;5114458;28;20451;-59
2021/05/20 02:53:45;;;;;;;12.10;10.47;;;;;;;;;;5096734;28;20433;-58
2021/05/20 02:56:22;;;;;;;13.27;11.00;;;;;;;;;;5097259;28;20498;-53
2021/05/20 02:58:49;;;;;;;18.20;11.10;;;;;;;;;;5096590;28;20460;-50
2021/05/20 03:01:16;;;;;;;14.47;11.87;;;;;;;;;;5097271;28;20517;-59
2021/05/20 03:03:53;;;;;;;15.07;11.40;;;;;;;;;;5096892;28;20487;-59
2021/05/20 03:06:19;;;;;;;14.97;13.33;;;;;;;;;;5098172;28;20494;-59
2021/05/20 03:08:47;;;;;;;19.53;10.73;;;;;;;;;;5078974;28;20460;-53
2021/05/20 03:11:29;;;;;;;16.23;12.77;;;;;;;;;;5096851;28;20468;-59
2021/05/20 03:13:56;;;;;;;14.70;12.17;;;;;;;;;;5096586;28;20466;-57
2021/05/20 03:16:27;;;;;;;15.60;12.50;;;;;;;;;;5086317;28;20438;-58
2021/05/20 03:19:33;;;;;;;17.40;12.53;;;;;;;;;;5076358;28;20475;-59
2021/05/20 03:22:04;;;;;;;16.60;13.37;;;;;;;;;;5076015;28;20444;-59
2021/05/20 03:24:31;;;;;;;15.27;12.53;;;;;;;;;;5078939;28;20461;-58
2021/05/20 03:26:58;;;;;;;17.50;13.80;;;;;;;;;;5076503;28;20520;-58
2021/05/20 03:29:25;;;;;;;17.33;12.70;;;;;;;;;;5080957;28;20445;-56
2021/05/20 03:31:51;;;;;;;16.07;13.40;;;;;;;;;;5080086;28;20460;-60
2021/05/20 03:34:18;;;;;;;17.40;13.83;;;;;;;;;;5088483;28;20453;-57
2021/05/20 03:36:45;;;;;;;20.00;14.23;;;;;;;;;;5091539;28;20514;-56
2021/05/20 03:39:14;;;;;;;18.60;14.37;;;;;;;;;;5096405;28;20511;-60
2021/05/20 03:41:41;;;;;;;14.73;13.00;;;;;;;;;;5095700;28;20452;-59
2021/05/20 03:44:28;;;;;;;16.20;13.70;;;;;;;;;;5089124;28;20515;-55
2021/05/20 03:46:55;;;;;;;17.17;13.30;;;;;;;;;;5075670;28;20468;-58
2021/05/20 03:49:21;;;;;;;17.50;14.33;;;;;;;;;;5095252;28;20444;-57
2021/05/20 03:52:11;;;;;;;20.10;16.03;;;;;;;;;;5094988;28;20771;-55
2021/05/20 03:54:42;;;;;;;20.80;15.97;;;;;;;;;;5086660;28;20569;-54
2021/05/20 03:57:09;;;;;;;22.00;16.20;;;;;;;;;;5086454;28;20479;-58
2021/05/20 03:59:36;;;;;;;25.80;18.10;;;;;;;;;;5089323;28;20440;-60
2021/05/20 04:02:03;;;;;;;20.87;17.27;;;;;;;;;;5093970;28;20448;-61
2021/05/20 04:04:32;;;;;;;19.93;16.70;;;;;;;;;;5076643;28;20516;-60
2021/05/20 04:07:20;;;;;;;26.30;19.83;;;;;;;;;;5075096;28;20969;-55
2021/05/20 04:09:49;;;;;;;26.47;19.87;;;;;;;;;;5095063;28;20482;-59
2021/05/20 04:12:16;;;;;;;23.93;18.93;;;;;;;;;;5094814;28;20444;-55
2021/05/20 04:14:43;;;;;;;23.00;19.53;;;;;;;;;;5094497;28;20631;-62
2021/05/20 04:17:10;;;;;;;24.33;19.23;;;;;;;;;;5094724;28;20477;-60
2021/05/20 04:22:41;;;;;;;23.83;20.23;;;;;;;;;;5081671;28;20478;-58
2021/05/20 04:25:09;;;;;;;24.53;16.97;;;;;;;;;;5094380;28;20456;-58
2021/05/20 04:27:57;;;;;;;27.10;20.30;;;;;;;;;;5080867;28;20441;-57
2021/05/20 04:30:25;;;;;;;24.07;20.63;;;;;;;;;;5107523;28;20447;-58
2021/05/20 04:32:54;;;;;;;30.40;20.43;;;;;;;;;;5087934;28;20443;-59
2021/05/20 04:35:34;;;;;;;26.50;20.47;;;;;;;;;;5095171;28;20447;-58
2021/05/20 04:38:01;;;;;;;30.00;21.70;;;;;;;;;;5091615;28;20522;-55
2021/05/20 04:40:30;;;;;;;25.70;20.77;;;;;;;;;;5094201;28;20444;-52
2021/05/20 04:42:57;;;;;;;29.63;22.97;;;;;;;;;;5094973;28;20466;-57
2021/05/20 04:45:24;;;;;;;26.60;21.97;;;;;;;;;;5094019;28;20447;-55
2021/05/20 04:47:51;;;;;;;29.17;22.17;;;;;;;;;;5094284;28;20480;-57
2021/05/20 04:50:19;;;;;;;27.67;22.30;;;;;;;;;;5095531;28;20555;-60
2021/05/20 04:52:50;;;;;;;29.60;21.97;;;;;;;;;;5096787;28;20447;-57
2021/05/20 04:55:18;;;;;;;29.00;22.80;;;;;;;;;;5093943;28;20500;-57
2021/05/20 04:57:46;;;;;;;29.17;22.30;;;;;;;;;;5088934;28;20445;-56
2021/05/20 05:00:14;;;;;;;32.27;24.60;;;;;;;;;;5081166;28;20448;-56
2021/05/20 05:02:46;;;;;;;30.97;25.70;;;;;;;;;;5093007;28;20501;-60
2021/05/20 05:05:15;;;;;;;31.93;27.97;;;;;;;;;;5090778;28;20460;-60
2021/05/20 05:07:45;;;;;;;36.10;26.67;;;;;;;;;;5093884;28;20460;-58
2021/05/20 05:10:13;;;;;;;34.93;25.80;;;;;;;;;;5095943;28;20616;-52
2021/05/20 05:12:40;;;;;;;31.03;25.53;;;;;;;;;;5095480;28;20834;-57
2021/05/20 05:15:34;;;;;;;35.73;28.40;;;;;;;;;;5098091;28;20478;-59
2021/05/20 05:18:01;;;;;;;31.87;25.07;;;;;;;;;;5097028;28;20483;-62
2021/05/20 05:20:29;;;;;;;35.40;28.17;;;;;;;;;;5097164;28;20455;-59
2021/05/20 05:22:56;;;;;;;35.33;27.80;;;;;;;;;;5097351;28;20495;-61
2021/05/20 05:25:25;;;;;;;39.53;28.60;;;;;;;;;;5097764;28;20475;-55
2021/05/20 05:27:53;;;;;;;34.40;27.53;;;;;;;;;;5094861;28;20514;-57
2021/05/20 05:30:21;;;;;;;32.47;27.63;;;;;;;;;;5099520;28;20464;-53
2021/05/20 05:32:54;;;;;;;35.93;28.43;;;;;;;;;;5097296;28;20440;-60
2021/05/20 05:35:22;;;;;;;37.73;27.80;;;;;;;;;;5096072;28;20516;-60
2021/05/20 05:37:51;;;;;;;42.53;31.03;;;;;;;;;;5086284;28;20445;-62
2021/05/20 05:40:17;;;;;;;41.50;32.20;;;;;;;;;;5097189;28;20520;-59
2021/05/20 05:42:48;;;;;;;45.87;33.10;;;;;;;;;;5102730;28;20507;-61
2021/05/20 05:45:15;;;;;;;41.57;32.83;;;;;;;;;;5101815;28;20492;-58
2021/05/20 05:47:42;;;;;;;39.70;32.37;;;;;;;;;;5096258;28;20451;-53
2021/05/20 05:50:13;;;;;;;61.83;45.10;;;;;;;;;;5090793;28;20490;-56
2021/05/20 05:52:41;;;;;;;44.53;33.17;;;;;;;;;;5096571;28;20487;-61
2021/05/20 05:55:11;;;;;;;44.03;33.07;;;;;;;;;;5095665;28;20429;-57
2021/05/20 05:57:38;;;;;;;42.67;30.40;;;;;;;;;;5092644;28;20445;-58
2021/05/20 06:00:05;;;;;;;41.30;30.17;;;;;;;;;;5082372;28;20483;-50
2021/05/20 06:02:35;;;;;;;44.20;32.80;;;;;;;;;;5096426;28;20490;-61
2021/05/20 06:05:03;;;;;;;42.10;32.10;;;;;;;;;;5096618;28;20448;-61
2021/05/20 06:07:45;;;;;;;56.83;46.50;;;;;;;;;;5096425;28;20543;-56
2021/05/20 06:10:13;;;;;;;46.17;33.87;;;;;;;;;;5084959;28;20483;-57
2021/05/20 06:12:40;;;;;;;39.60;29.70;;;;;;;;;;5095829;28;20437;-51
2021/05/20 06:15:14;;;;;;;38.73;31.13;;;;;;;;;;5090226;28;20453;-60
2021/05/20 06:17:42;;;;;;;40.47;32.40;;;;;;;;;;5075404;28;20456;-52
2021/05/20 06:20:09;;;;;;;36.90;29.17;;;;;;;;;;5074577;28;20433;-56
2021/05/20 06:22:39;;;;;;;39.30;30.17;;;;;;;;;;5081509;28;20854;-56
2021/05/20 06:25:13;;;;;;;42.37;31.73;;;;;;;;;;5094791;28;20456;-57
2021/05/20 06:27:41;;;;;;;44.40;29.40;;;;;;;;;;5084541;28;20508;-61
2021/05/20 06:33:11;;;;;;;33.00;25.90;;;;;;;;;;5094619;28;20422;-55
2021/05/20 06:35:44;;;;;;;37.27;28.37;;;;;;;;;;5090073;28;20456;-54
2021/05/20 06:38:23;;;;;;;36.60;28.23;;;;;;;;;;5088822;28;20465;-53
2021/05/20 06:41:06;;;;;;;35.17;26.70;;;;;;;;;;5075463;28;20457;-57
2021/05/20 06:43:33;;;;;;;38.40;28.47;;;;;;;;;;5093330;28;20491;-54
2021/05/20 06:46:02;;;;;;;35.33;28.33;;;;;;;;;;5086606;28;20550;-60
2021/05/20 06:48:29;;;;;;;36.73;26.87;;;;;;;;;;5094736;28;20451;-53
2021/05/20 06:50:56;;;;;;;37.37;27.63;;;;;;;;;;5094070;28;20448;-55
2021/05/20 06:53:25;;;;;;;39.17;26.00;;;;;;;;;;5090543;28;20457;-55
2021/05/20 06:55:56;;;;;;;41.53;31.83;;;;;;;;;;5073818;28;20492;-60
2021/05/20 07:01:15;;;;;;;39.50;29.27;;;;;;;;;;5090921;28;20435;-57
2021/05/20 07:03:43;;;;;;;43.90;31.00;;;;;;;;;;5093943;28;20476;-61
2021/05/20 07:06:10;;;;;;;42.07;30.00;;;;;;;;;;5094078;28;20451;-59
2021/05/20 07:08:40;;;;;;;45.67;31.40;;;;;;;;;;5094118;28;20459;-60
2021/05/20 07:11:34;;;;;;;35.63;28.23;;;;;;;;;;5083098;28;20549;-58
2021/05/20 07:14:03;;;;;;;47.17;29.80;;;;;;;;;;5075004;28;20448;-59
2021/05/20 07:16:30;;;;;;;41.93;31.10;;;;;;;;;;5078731;28;20468;-61
2021/05/20 07:18:57;;;;;;;43.77;29.80;;;;;;;;;;5073459;28;20449;-63
2021/05/20 07:21:35;;;;;;;39.10;28.27;;;;;;;;;;5077656;28;20485;-56
2021/05/20 07:24:02;;;;;;;44.17;31.17;;;;;;;;;;5094043;28;20492;-59
2021/05/20 07:26:29;;;;;;;44.37;30.43;;;;;;;;;;5087813;28;20522;-56
2021/05/20 07:28:56;;;;;;;41.93;31.93;;;;;;;;;;5078378;28;20480;-59
2021/05/20 07:31:27;;;;;;;39.60;30.30;;;;;;;;;;5074307;28;20449;-59
2021/05/20 07:33:57;;;;;;;35.03;28.40;;;;;;;;;;5093365;28;20452;-59
2021/05/20 07:36:27;;;;;;;37.87;30.07;;;;;;;;;;5087734;28;20451;-57
2021/05/20 07:39:07;;;;;;;40.70;30.13;;;;;;;;;;5093983;28;20448;-57
2021/05/20 07:41:36;;;;;;;42.03;29.90;;;;;;;;;;5093572;28;20496;-56
2021/05/20 07:44:09;;;;;;;41.90;28.47;;;;;;;;;;5093701;28;20555;-61
2021/05/20 07:46:37;;;;;;;37.33;29.23;;;;;;;;;;5089286;28;20472;-56
2021/05/20 07:49:05;;;;;;;37.30;27.40;;;;;;;;;;5092721;28;20460;-53
2021/05/20 07:51:33;;;;;;;38.57;26.90;;;;;;;;;;5099152;28;20431;-61
2021/05/20 07:53:59;;;;;;;37.67;27.50;;;;;;;;;;5093643;28;20444;-57
2021/05/20 07:56:27;;;;;;;36.20;26.73;;;;;;;;;;5092868;28;20445;-55
2021/05/20 07:59:12;;;;;;;40.00;28.60;;;;;;;;;;5093796;28;20486;-58
2021/05/20 08:01:49;;;;;;;34.97;26.30;;;;;;;;;;5091146;28;20503;-55
2021/05/20 08:04:18;;;;;;;35.93;25.80;;;;;;;;;;5092644;28;20586;-55
2021/05/20 08:06:54;;;;;;;32.30;24.83;;;;;;;;;;5082579;28;20464;-59
2021/05/20 08:09:28;;;;;;;31.30;24.93;;;;;;;;;;5090047;28;20515;-65
2021/05/20 08:11:55;;;;;;;30.57;23.70;;;;;;;;;;5087501;28;20465;-52
2021/05/20 08:14:24;;;;;;;31.67;23.20;;;;;;;;;;5080794;28;20471;-59
2021/05/20 08:16:52;;;;;;;22.00;18.17;;;;;;;;;;5072964;28;20433;-59
2021/05/20 08:19:26;;;;;;;28.00;20.03;;;;;;;;;;5079821;28;20440;-62
2021/05/20 08:21:53;;;;;;;22.80;17.43;;;;;;;;;;5093684;28;20455;-58
2021/05/20 08:24:23;;;;;;;23.17;19.03;;;;;;;;;;5093159;28;20503;-52
2021/05/20 08:26:55;;;;;;;20.47;16.97;;;;;;;;;;5090377;28;20470;-57
2021/05/20 08:29:22;;;;;;;21.30;16.30;;;;;;;;;;5084703;28;20511;-59
2021/05/20 08:31:49;;;;;;;24.37;17.80;;;;;;;;;;5094456;28;20452;-54
2021/05/20 08:34:21;;;;;;;24.20;16.87;;;;;;;;;;5103199;28;20451;-58
2021/05/20 08:36:52;;;;;;;27.10;17.10;;;;;;;;;;5084850;28;20448;-58
2021/05/20 08:39:19;;;;;;;17.90;14.90;;;;;;;;;;5093856;28;20436;-55
2021/05/20 08:41:59;;;;;;;17.60;13.67;;;;;;;;;;5092215;28;20463;-57
2021/05/20 08:44:26;;;;;;;18.87;15.10;;;;;;;;;;5094535;28;20551;-56
2021/05/20 08:46:56;;;;;;;22.10;15.17;;;;;;;;;;5106903;28;20514;-58
2021/05/20 08:49:32;;;;;;;19.17;14.57;;;;;;;;;;5104114;28;20568;-61
2021/05/20 08:51:59;;;;;;;19.57;14.40;;;;;;;;;;5099825;28;20456;-58
2021/05/20 08:54:27;;;;;;;20.53;15.27;;;;;;;;;;5094608;28;20446;-55
2021/05/20 08:57:17;;;;;;;29.43;17.37;;;;;;;;;;5094943;28;20497;-51
2021/05/20 08:59:45;;;;;;;54.67;39.00;;;;;;;;;;5095194;28;20456;-62
2021/05/20 09:02:22;;;;;;;19.53;16.00;;;;;;;;;;5094946;28;20453;-57
2021/05/20 09:04:57;;;;;;;19.57;15.30;;;;;;;;;;5099449;28;20443;-57
2021/05/20 09:07:30;;;;;;;23.17;14.87;;;;;;;;;;5094854;28;20457;-56
2021/05/20 09:10:23;;;;;;;18.53;15.20;;;;;;;;;;5090457;28;20446;-60
2021/05/20 09:12:51;;;;;;;17.83;15.13;;;;;;;;;;5078963;28;20440;-56
2021/05/20 09:15:19;;;;;;;21.60;16.33;;;;;;;;;;5094966;28;20436;-57
2021/05/20 09:17:46;;;;;;;21.93;16.53;;;;;;;;;;5094508;28;20542;-54
2021/05/20 09:20:14;;;;;;;18.40;13.53;;;;;;;;;;5094122;28;20470;-60
2021/05/20 09:22:43;;;;;;;14.67;12.20;;;;;;;;;;5094139;28;20455;-60
2021/05/20 09:25:11;;;;;;;17.07;12.90;;;;;;;;;;5090343;28;20453;-59
2021/05/20 09:27:47;;;;;;;20.10;13.77;;;;;;;;;;5087157;28;20475;-58
2021/05/20 09:30:18;;;;;;;15.77;13.37;;;;;;;;;;5072911;28;20498;-59
2021/05/20 09:32:48;;;;;;;20.73;14.20;;;;;;;;;;5074508;28;20456;-59
2021/05/20 09:35:20;;;;;;;14.57;12.80;;;;;;;;;;5074097;28;20467;-57
2021/05/20 09:37:50;;;;;;;18.23;12.43;;;;;;;;;;5073928;28;20448;-58
2021/05/20 09:40:21;;;;;;;23.60;14.80;;;;;;;;;;5068536;28;20462;-54
2021/05/20 09:42:48;;;;;;;16.40;12.93;;;;;;;;;;5067844;28;20556;-60
2021/05/20 09:45:17;;;;;;;16.40;13.97;;;;;;;;;;5059720;28;20513;-56
2021/05/20 09:47:47;;;;;;;15.70;13.00;;;;;;;;;;5087989;28;20461;-60
2021/05/20 09:50:32;;;;;;;18.47;12.83;;;;;;;;;;5074566;28;20465;-59
2021/05/20 09:56:04;;;;;;;17.53;12.40;;;;;;;;;;5076839;28;20843;-61
2021/05/20 09:58:32;;;;;;;16.33;13.00;;;;;;;;;;5090014;28;20464;-55
2021/05/20 10:00:59;;;;;;;15.03;12.23;;;;;;;;;;5074065;28;20456;-58
2021/05/20 10:03:35;;;;;;;15.77;12.47;;;;;;;;;;5076623;28;20481;-60
2021/05/20 10:06:05;;;;;;;16.73;12.67;;;;;;;;;;5077187;28;20467;-57
2021/05/20 10:08:33;;;;;;;15.30;12.40;;;;;;;;;;5067377;28;20488;-60
2021/05/20 10:11:30;;;;;;;13.73;11.60;;;;;;;;;;5074066;28;20464;-48
2021/05/20 10:14:08;;;;;;;21.17;11.33;;;;;;;;;;5058803;28;20438;-60
2021/05/20 10:16:38;;;;;;;15.93;11.27;;;;;;;;;;5078760;28;20460;-54
2021/05/20 10:19:23;;;;;;;19.40;12.90;;;;;;;;;;5076717;28;20762;-59
2021/05/20 10:21:51;;;;;;;17.57;12.40;;;;;;;;;;5076225;28;20453;-58
2021/05/20 10:24:19;;;;;;;13.90;12.03;;;;;;;;;;5061015;28;20504;-52
2021/05/20 10:27:02;;;;;;;16.67;12.73;;;;;;;;;;5076182;28;20480;-61
2021/05/20 10:32:49;;;;;;;12.77;10.57;;;;;;;;;;5094902;28;20488;-55
2021/05/20 10:35:17;;;;;;;19.50;11.83;;;;;;;;;;5096825;28;20513;-57
2021/05/20 10:37:45;;;;;;;14.47;12.17;;;;;;;;;;5098074;28;20454;-55
2021/05/20 10:40:13;;;;;;;14.13;11.00;;;;;;;;;;5087745;28;20504;-55
2021/05/20 10:42:41;;;;;;;13.30;11.17;;;;;;;;;;5076440;28;20429;-61
2021/05/20 10:45:25;;;;;;;15.97;11.10;;;;;;;;;;5094191;28;20432;-55
2021/05/20 10:48:16;;;;;;;13.97;12.00;;;;;;;;;;5096906;28;20440;-58
2021/05/20 10:51:01;;;;;;;16.00;11.33;;;;;;;;;;5081994;28;20464;-59
2021/05/20 10:53:45;;;;;;;15.93;10.97;;;;;;;;;;5097020;28;20444;-54
2021/05/20 10:56:31;;;;;;;15.77;10.30;;;;;;;;;;5106391;28;20503;-55
2021/05/20 10:58:58;;;;;;;15.23;11.23;;;;;;;;;;5095811;28;20456;-53
2021/05/20 11:01:39;;;;;;;11.60;8.90;;;;;;;;;;5096347;28;20835;-52
2021/05/20 11:04:06;;;;;;;14.77;11.30;;;;;;;;;;5096390;28;20475;-58
2021/05/20 11:06:48;;;;;;;14.07;9.40;;;;;;;;;;5102842;28;20454;-60
2021/05/20 11:09:46;;;;;;;12.10;8.87;;;;;;;;;;5114148;28;20456;-59
2021/05/20 11:12:51;;;;;;;10.67;8.30;;;;;;;;;;5008185;28;20448;-56
2021/05/20 11:15:42;;;;;;;9.83;8.00;;;;;;;;;;5102340;28;20447;-55
2021/05/20 11:18:24;;;;;;;10.87;7.60;;;;;;;;;;5096406;28;20452;-54
2021/05/20 11:21:17;;;;;;;11.43;9.17;;;;;;;;;;5077037;28;20479;-54
2021/05/20 11:23:44;;;;;;;11.27;9.20;;;;;;;;;;5075902;28;20500;-55
2021/05/20 11:26:12;;;;;;;11.60;7.60;;;;;;;;;;5076174;28;20473;-59
2021/05/20 11:28:40;;;;;;;10.67;8.00;;;;;;;;;;5075566;28;20511;-56
2021/05/20 11:31:45;;;;;;;13.33;7.93;;;;;;;;;;5100852;28;20608;-59
2021/05/20 11:34:59;;;;;;;9.57;6.53;;;;;;;;;;5095194;28;20450;-65
2021/05/20 11:37:30;;;;;;;10.33;7.30;;;;;;;;;;5104753;28;20516;-56
2021/05/20 11:39:57;;;;;;;11.73;6.50;;;;;;;;;;5096228;28;20428;-53
2021/05/20 11:42:31;;;;;;;9.70;7.20;;;;;;;;;;5084984;28;20459;-58
2021/05/20 11:45:12;;;;;;;11.13;6.70;;;;;;;;;;5085309;28;20483;-58
2021/05/20 11:47:39;;;;;;;8.50;6.20;;;;;;;;;;5116514;28;20469;-60
2021/05/20 11:50:11;;;;;;;11.50;6.43;;;;;;;;;;5116891;28;20470;-58
2021/05/20 11:55:43;;;;;;;7.20;5.70;;;;;;;;;;5084021;28;20515;-53
2021/05/20 11:58:10;;;;;;;6.23;4.70;;;;;;;;;;5074967;28;20433;-57
2021/05/20 12:00:40;;;;;;;6.33;5.10;;;;;;;;;;5065420;28;20468;-54
2021/05/20 12:03:08;;;;;;;12.23;6.03;;;;;;;;;;5055439;28;20496;-57
2021/05/20 12:05:39;;;;;;;7.93;5.47;;;;;;;;;;5072343;28;20516;-51
2021/05/20 12:08:18;;;;;;;10.93;4.97;;;;;;;;;;5071663;28;20834;-57
2021/05/20 12:10:51;;;;;;;8.13;4.27;;;;;;;;;;5069094;28;20444;-57
2021/05/20 12:13:19;;;;;;;7.57;3.57;;;;;;;;;;5075078;28;20536;-59
2021/05/20 12:15:48;;;;;;;7.23;4.13;;;;;;;;;;5068185;28;20462;-59
2021/05/20 12:18:15;;;;;;;7.67;3.73;;;;;;;;;;5070948;28;20453;-56
2021/05/20 12:20:48;;;;;;;5.20;3.90;;;;;;;;;;5075873;28;20470;-61
2021/05/20 12:23:18;;;;;;;6.43;4.80;;;;;;;;;;5089371;28;20501;-62
2021/05/20 12:25:45;;;;;;;7.23;5.10;;;;;;;;;;5087507;28;20467;-56
2021/05/20 12:28:21;;;;;;;5.87;4.80;;;;;;;;;;5094855;28;20486;-56
2021/05/20 12:30:48;;;;;;;5.53;4.17;;;;;;;;;;5095261;28;20509;-55
2021/05/20 12:33:15;;;;;;;8.20;3.83;;;;;;;;;;5094533;28;20531;-60
2021/05/20 12:36:05;;;;;;;6.00;3.53;;;;;;;;;;5083990;28;20464;-56
2021/05/20 12:38:35;;;;;;;7.23;4.50;;;;;;;;;;5093302;28;20467;-60
2021/05/20 12:41:08;;;;;;;8.87;5.90;;;;;;;;;;5076343;28;20465;-54
2021/05/20 12:46:46;;;;;;;7.00;4.30;;;;;;;;;;5078917;28;20463;-63
2021/05/20 12:49:19;;;;;;;6.30;3.73;;;;;;;;;;5075094;28;20520;-57
2021/05/20 12:52:12;;;;;;;6.53;3.97;;;;;;;;;;5063221;28;20458;-61
2021/05/20 12:54:39;;;;;;;9.73;5.33;;;;;;;;;;5085100;28;20559;-59
2021/05/20 12:57:08;;;;;;;8.27;4.60;;;;;;;;;;5072280;28;20469;-56
2021/05/20 12:59:41;;;;;;;4.93;3.40;;;;;;;;;;5078934;28;20449;-61
2021/05/20 13:02:14;;;;;;;5.60;2.57;;;;;;;;;;5073711;28;20541;-55
2021/05/20 13:04:42;;;;;;;4.93;3.17;;;;;;;;;;5074300;28;20480;-57
2021/05/20 13:07:19;;;;;;;3.63;2.10;;;;;;;;;;5075157;28;20461;-58
2021/05/20 13:09:55;;;;;;;4.40;2.37;;;;;;;;;;5075491;28;20445;-57
2021/05/20 13:12:28;;;;;;;4.17;2.47;;;;;;;;;;5075233;28;20452;-55
2021/05/20 13:15:16;;;;;;;3.50;2.20;;;;;;;;;;5074789;28;20915;-61
2021/05/20 13:18:01;;;;;;;5.00;3.73;;;;;;;;;;5073322;28;20484;-55
2021/05/20 13:23:28;;;;;;;3.63;2.10;;;;;;;;;;5037976;28;20476;-61
2021/05/20 13:26:02;;;;;;;6.50;3.90;;;;;;;;;;5073923;28;20449;-57
2021/05/20 13:28:31;;;;;;;5.70;2.70;;;;;;;;;;5074999;28;20514;-54
2021/05/20 13:31:01;;;;;;;3.97;2.93;;;;;;;;;;5079695;28;20444;-57
2021/05/20 13:33:42;;;;;;;4.47;2.27;;;;;;;;;;5079256;28;20433;-59
2021/05/20 13:36:11;;;;;;;8.40;2.97;;;;;;;;;;5079373;28;20439;-57
2021/05/20 13:38:38;;;;;;;4.73;2.30;;;;;;;;;;5078883;28;20518;-59
2021/05/20 13:41:28;;;;;;;4.40;1.80;;;;;;;;;;5078299;28;20460;-58
2021/05/20 13:43:55;;;;;;;4.13;2.33;;;;;;;;;;5066924;28;20484;-50
2021/05/20 13:46:22;;;;;;;5.27;2.07;;;;;;;;;;5065573;28;20459;-57
2021/05/20 13:48:59;;;;;;;7.73;2.50;;;;;;;;;;5069366;28;20441;-59
2021/05/20 13:51:27;;;;;;;4.47;2.70;;;;;;;;;;5073132;28;20475;-54
2021/05/20 13:53:59;;;;;;;5.47;2.13;;;;;;;;;;5077827;28;20461;-50
2021/05/20 13:56:26;;;;;;;4.10;2.63;;;;;;;;;;5086163;28;20439;-54
2021/05/20 13:58:53;;;;;;;4.40;1.60;;;;;;;;;;5089665;28;20445;-58
2021/05/20 14:04:26;;;;;;;3.70;1.97;;;;;;;;;;5075105;28;20590;-56
2021/05/20 14:06:53;;;;;;;5.60;1.87;;;;;;;;;;5077483;28;20457;-57
2021/05/20 14:09:31;;;;;;;3.10;1.30;;;;;;;;;;5066927;28;20460;-60
2021/05/20 14:11:59;;;;;;;5.80;1.87;;;;;;;;;;5077404;28;20453;-52
2021/05/20 14:14:26;;;;;;;4.10;2.10;;;;;;;;;;5077390;28;20461;-53
2021/05/20 14:17:12;;;;;;;3.10;1.73;;;;;;;;;;5077257;28;20456;-55
2021/05/20 14:19:55;;;;;;;4.10;2.00;;;;;;;;;;5077842;28;20433;-57
2021/05/20 14:22:22;;;;;;;7.63;3.20;;;;;;;;;;5077424;28;20528;-57
2021/05/20 14:25:17;;;;;;;7.90;2.50;;;;;;;;;;5077057;28;20488;-55
2021/05/20 14:27:44;;;;;;;3.97;1.80;;;;;;;;;;5092821;28;20524;-52
2021/05/20 14:30:12;;;;;;;3.10;1.63;;;;;;;;;;5097027;28;20472;-54
2021/05/20 14:33:08;;;;;;;3.20;1.97;;;;;;;;;;5096991;28;20463;-61
2021/05/20 14:35:39;;;;;;;3.80;2.30;;;;;;;;;;5077924;28;20479;-57
2021/05/20 14:38:06;;;;;;;6.63;1.40;;;;;;;;;;5097118;28;20464;-60
2021/05/20 14:40:33;;;;;;;6.70;3.73;;;;;;;;;;5110004;28;20440;-60
2021/05/20 14:43:00;;;;;;;5.60;1.93;;;;;;;;;;5097010;28;20471;-53
2021/05/20 14:45:40;;;;;;;4.50;1.97;;;;;;;;;;5097166;28;20483;-61
2021/05/20 14:48:07;;;;;;;3.43;1.50;;;;;;;;;;5096506;28;20463;-58
2021/05/20 14:50:36;;;;;;;3.17;1.80;;;;;;;;;;5093246;28;20795;-58
2021/05/20 14:53:06;;;;;;;4.13;2.03;;;;;;;;;;5087394;28;20535;-62
2021/05/20 14:55:42;;;;;;;4.27;2.17;;;;;;;;;;5096751;28;20456;-52
2021/05/20 15:04:58;;;;;;;3.77;1.73;;;;;;;;;;5090466;28;20440;-54
2021/05/20 15:07:16;;;;;;;5.23;1.67;;;;;;;;;;5081819;28;20590;-59
2021/05/20 15:09:50;;;;;;;12.33;2.17;;;;;;;;;;5074549;28;20524;-58
2021/05/20 15:12:27;;;;;;;5.50;2.60;;;;;;;;;;5074396;28;20503;-58
2021/05/20 15:15:02;;;;;;;5.40;1.60;;;;;;;;;;5075023;28;20441;-58
2021/05/20 15:17:33;;;;;;;3.83;2.07;;;;;;;;;;5069110;28;20477;-53
2021/05/20 15:20:14;;;;;;;4.60;1.80;;;;;;;;;;5075985;28;20456;-60
2021/05/20 15:22:41;;;;;;;4.97;2.10;;;;;;;;;;5074374;28;20470;-63
2021/05/20 15:25:12;;;;;;;2.93;1.10;;;;;;;;;;5075371;28;20481;-52